createdAt,value
2018-11-07T00:02:26.554Z,29.83
2018-11-07T00:04:54.195Z,29.23
2018-11-07T00:07:21.820Z,29.77
2018-11-07T00:09:49.339Z,29.97
2018-11-07T00:12:16.980Z,30.27
2018-11-07T00:14:44.625Z,30.47
2018-11-07T00:17:14.119Z,30.43
2018-11-07T00:19:43.264Z,30.17
2018-11-07T00:22:11.484Z,30.43
2018-11-07T00:24:39.261Z,29.60
2018-11-07T00:27:06.855Z,31.70
2018-11-07T00:29:34.622Z,35.57
2018-11-07T00:32:02.812Z,37.53
2018-11-07T00:34:30.276Z,36.93
2018-11-07T00:36:57.946Z,37.80
2018-11-07T00:39:25.597Z,37.07
2018-11-07T00:41:53.126Z,38.17
2018-11-07T00:44:20.749Z,36.20
2018-11-07T00:46:49.097Z,35.77
2018-11-07T00:49:17.658Z,34.43
2018-11-07T00:51:45.679Z,32.83
2018-11-07T00:54:13.363Z,33.60
2018-11-07T00:56:41.167Z,34.47
2018-11-07T00:59:08.804Z,32.00
2018-11-07T01:01:36.610Z,32.53
2018-11-07T01:04:04.747Z,32.00
2018-11-07T01:06:32.418Z,32.40
2018-11-07T01:09:00.319Z,32.13
2018-11-07T01:11:28.066Z,32.03
2018-11-07T01:13:55.820Z,32.87
2018-11-07T01:16:23.356Z,33.20
2018-11-07T01:18:50.955Z,35.87
2018-11-07T01:21:20.123Z,32.80
2018-11-07T01:23:48.282Z,34.90
2018-11-07T01:26:16.074Z,33.53
2018-11-07T01:28:43.918Z,32.93
2018-11-07T01:31:11.907Z,32.87
2018-11-07T01:33:39.484Z,32.13
2018-11-07T01:36:07.020Z,32.70
2018-11-07T01:38:34.859Z,32.23
2018-11-07T01:41:02.738Z,32.60
2018-11-07T01:43:30.296Z,32.30
2018-11-07T01:45:58.173Z,29.50
2018-11-07T01:48:25.897Z,31.40
2018-11-07T01:50:53.729Z,30.53
2018-11-07T01:53:21.504Z,32.43
2018-11-07T01:55:49.489Z,32.17
2018-11-07T01:58:17.287Z,31.50
2018-11-07T02:00:45.176Z,31.80
2018-11-07T02:03:13.159Z,33.60
2018-11-07T02:05:41.225Z,34.20
2018-11-07T02:08:09.110Z,32.33
2018-11-07T02:10:36.946Z,34.40
2018-11-07T02:13:04.961Z,29.47
2018-11-07T02:15:32.837Z,32.40
2018-11-07T02:18:00.654Z,33.10
2018-11-07T02:20:28.888Z,32.67
2018-11-07T02:22:56.643Z,32.70
2018-11-07T02:25:24.199Z,30.93
2018-11-07T02:27:54.152Z,30.97
2018-11-07T02:30:21.788Z,31.53
2018-11-07T02:32:50.046Z,31.50
2018-11-07T02:35:17.778Z,30.53
2018-11-07T02:37:45.947Z,29.37
2018-11-07T02:40:13.755Z,30.57
2018-11-07T02:42:41.555Z,29.50
2018-11-07T02:45:09.376Z,28.90
2018-11-07T02:47:37.469Z,27.57
2018-11-07T02:50:06.224Z,28.00
2018-11-07T02:52:33.937Z,27.70
2018-11-07T02:55:02.264Z,29.40
2018-11-07T02:57:29.972Z,26.40
2018-11-07T02:59:57.792Z,26.20
2018-11-07T03:02:25.595Z,26.70
2018-11-07T03:04:53.406Z,26.97
2018-11-07T03:07:21.107Z,27.00
2018-11-07T03:09:48.780Z,27.00
2018-11-07T03:12:16.544Z,27.83
2018-11-07T03:14:44.746Z,25.07
2018-11-07T03:17:12.591Z,25.07
2018-11-07T03:19:40.322Z,25.27
2018-11-07T03:22:07.919Z,25.93
2018-11-07T03:24:36.075Z,26.17
2018-11-07T03:27:04.270Z,25.90
2018-11-07T03:29:32.375Z,24.67
2018-11-07T03:32:00.232Z,25.17
2018-11-07T03:34:27.833Z,24.50
2018-11-07T03:36:55.611Z,23.67
2018-11-07T03:39:23.426Z,22.90
2018-11-07T03:41:51.400Z,19.17
2018-11-07T03:44:19.302Z,17.23
2018-11-07T03:46:47.184Z,16.63
2018-11-07T03:49:15.271Z,18.47
2018-11-07T03:51:42.925Z,18.60
2018-11-07T03:54:11.086Z,22.50
2018-11-07T03:56:38.787Z,21.80
2018-11-07T03:59:06.527Z,20.90
2018-11-07T04:01:34.264Z,20.43
2018-11-07T04:04:02.090Z,19.87
2018-11-07T04:06:29.826Z,21.20
2018-11-07T04:08:57.477Z,20.87
2018-11-07T04:11:25.387Z,19.93
2018-11-07T04:13:53.218Z,21.50
2018-11-07T04:16:21.044Z,21.17
2018-11-07T04:18:48.842Z,22.27
2018-11-07T04:21:16.745Z,22.97
2018-11-07T04:23:51.479Z,21.63
2018-11-07T04:26:19.202Z,24.93
2018-11-07T04:28:46.853Z,22.70
2018-11-07T04:31:14.360Z,25.33
2018-11-07T04:33:43.303Z,22.73
2018-11-07T04:36:11.081Z,23.27
2018-11-07T04:38:38.967Z,22.20
2018-11-07T04:41:06.833Z,23.10
2018-11-07T04:43:34.785Z,21.00
2018-11-07T04:46:02.609Z,20.77
2018-11-07T04:48:30.239Z,20.10
2018-11-07T04:50:58.199Z,21.90
2018-11-07T04:53:26.292Z,18.70
2018-11-07T04:55:54.551Z,21.33
2018-11-07T04:58:22.251Z,20.20
2018-11-07T05:00:50.233Z,21.47
2018-11-07T05:03:17.917Z,21.30
2018-11-07T05:05:45.439Z,21.00
2018-11-07T05:08:13.268Z,21.90
2018-11-07T05:10:41.161Z,20.63
2018-11-07T05:13:09.419Z,21.73
2018-11-07T05:15:37.268Z,23.10
2018-11-07T05:18:05.111Z,21.67
2018-11-07T05:20:33.103Z,22.70
2018-11-07T05:23:01.019Z,23.03
2018-11-07T05:25:28.501Z,20.90
2018-11-07T05:27:56.521Z,21.57
2018-11-07T05:30:24.342Z,20.97
2018-11-07T05:32:52.434Z,22.00
2018-11-07T05:35:20.200Z,21.00
2018-11-07T05:37:48.451Z,21.57
2018-11-07T05:40:17.589Z,23.03
2018-11-07T05:42:45.567Z,22.37
2018-11-07T05:45:13.543Z,23.33
2018-11-07T05:47:41.273Z,21.10
2018-11-07T05:50:09.814Z,22.53
2018-11-07T05:52:39.165Z,21.63
2018-11-07T05:55:07.839Z,21.70
2018-11-07T05:57:35.913Z,20.17
2018-11-07T06:00:04.167Z,23.23
2018-11-07T06:02:32.065Z,22.73
2018-11-07T06:05:00.049Z,22.87
2018-11-07T06:07:27.643Z,21.33
2018-11-07T06:09:55.876Z,20.07
2018-11-07T06:12:23.492Z,22.30
2018-11-07T06:14:51.549Z,21.53
2018-11-07T06:17:19.632Z,21.63
2018-11-07T06:19:47.439Z,20.33
2018-11-07T06:22:15.404Z,20.57
2018-11-07T06:24:43.540Z,22.23
2018-11-07T06:27:11.055Z,19.67
2018-11-07T06:29:39.036Z,21.00
2018-11-07T06:32:07.367Z,21.27
2018-11-07T06:34:35.529Z,19.30
2018-11-07T06:37:03.552Z,20.60
2018-11-07T06:39:31.472Z,21.17
2018-11-07T06:41:59.199Z,21.20
2018-11-07T06:44:27.100Z,22.87
2018-11-07T06:46:55.096Z,20.23
2018-11-07T06:49:22.824Z,20.70
2018-11-07T06:51:50.794Z,21.10
2018-11-07T06:54:18.648Z,21.10
2018-11-07T06:56:46.255Z,21.27
2018-11-07T06:59:14.311Z,21.23
2018-11-07T07:01:43.095Z,22.60
2018-11-07T07:04:11.138Z,21.33
2018-11-07T07:06:39.215Z,20.80
2018-11-07T07:09:08.193Z,21.50
2018-11-07T07:11:36.352Z,19.53
2018-11-07T07:14:06.465Z,19.60
2018-11-07T07:16:35.647Z,19.97
2018-11-07T07:19:03.740Z,19.63
2018-11-07T07:21:31.652Z,22.40
2018-11-07T07:23:59.346Z,26.37
2018-11-07T07:26:26.910Z,25.90
2018-11-07T07:28:54.669Z,21.57
2018-11-07T07:31:22.278Z,23.67
2018-11-07T07:33:50.005Z,23.70
2018-11-07T07:36:17.543Z,24.00
2018-11-07T07:38:45.271Z,25.57
2018-11-07T07:41:12.964Z,24.47
2018-11-07T07:43:40.662Z,24.00
2018-11-07T07:46:08.334Z,24.47
2018-11-07T07:48:36.023Z,24.20
2018-11-07T07:51:03.950Z,24.37
2018-11-07T07:53:31.524Z,24.47
2018-11-07T07:55:59.058Z,22.97
2018-11-07T07:58:26.609Z,21.40
2018-11-07T08:00:54.277Z,22.60
2018-11-07T08:03:21.964Z,21.70
2018-11-07T08:05:49.615Z,22.17
2018-11-07T08:08:17.361Z,24.20
2018-11-07T08:10:46.057Z,25.40
2018-11-07T08:13:17.056Z,25.17
2018-11-07T08:15:44.854Z,25.43
2018-11-07T08:18:12.474Z,26.73
2018-11-07T08:20:40.191Z,26.47
2018-11-07T08:23:07.802Z,28.27
2018-11-07T08:25:35.539Z,26.40
2018-11-07T08:28:03.054Z,27.47
2018-11-07T08:30:30.680Z,27.57
2018-11-07T08:32:58.312Z,26.90
2018-11-07T08:35:25.840Z,27.47
2018-11-07T08:37:53.412Z,28.43
2018-11-07T08:40:22.278Z,26.90
2018-11-07T08:42:50.348Z,30.20
2018-11-07T08:45:17.948Z,29.17
2018-11-07T08:47:46.154Z,26.70
2018-11-07T08:50:15.297Z,27.37
2018-11-07T08:52:43.834Z,26.77
2018-11-07T08:55:12.980Z,26.80
2018-11-07T08:57:40.653Z,25.20
2018-11-07T09:00:10.999Z,27.53
2018-11-07T09:02:38.580Z,26.30
2018-11-07T09:05:08.190Z,25.50
2018-11-07T09:07:35.951Z,25.27
2018-11-07T09:10:04.056Z,25.97
2018-11-07T09:12:31.589Z,25.20
2018-11-07T09:14:59.180Z,24.83
2018-11-07T09:17:26.733Z,24.73
2018-11-07T09:19:54.419Z,23.67
2018-11-07T09:22:22.352Z,23.60
2018-11-07T09:24:50.041Z,26.03
2018-11-07T09:27:17.607Z,24.83
2018-11-07T09:29:45.239Z,24.73
2018-11-07T09:32:12.821Z,24.70
2018-11-07T09:34:40.415Z,24.67
2018-11-07T09:37:07.983Z,22.40
2018-11-07T09:39:35.579Z,23.37
2018-11-07T09:42:03.300Z,22.30
2018-11-07T09:44:30.924Z,24.03
2018-11-07T09:46:58.480Z,23.10
2018-11-07T09:49:26.104Z,20.33
2018-11-07T09:51:53.742Z,21.00
2018-11-07T09:54:21.423Z,20.53
2018-11-07T09:56:49.042Z,19.67
2018-11-07T09:59:16.646Z,18.83
2018-11-07T10:01:44.261Z,18.30
2018-11-07T10:04:11.870Z,18.37
2018-11-07T10:06:39.602Z,18.57
2018-11-07T10:09:08.518Z,18.13
2018-11-07T10:11:36.167Z,18.17
2018-11-07T10:14:04.006Z,17.77
2018-11-07T10:16:31.597Z,16.10
2018-11-07T10:19:02.206Z,16.40
2018-11-07T10:21:29.811Z,15.63
2018-11-07T10:23:57.412Z,15.20
2018-11-07T10:26:25.060Z,15.20
2018-11-07T10:28:52.982Z,14.10
2018-11-07T10:31:20.661Z,15.27
2018-11-07T10:33:48.280Z,13.60
2018-11-07T10:36:15.819Z,14.60
2018-11-07T10:38:43.585Z,13.10
2018-11-07T10:41:12.035Z,12.03
2018-11-07T10:43:39.650Z,11.30
2018-11-07T10:46:07.309Z,11.70
2018-11-07T10:48:34.869Z,12.30
2018-11-07T10:51:02.494Z,11.70
2018-11-07T10:53:30.028Z,12.30
2018-11-07T10:55:57.625Z,11.10
2018-11-07T10:58:25.291Z,11.27
2018-11-07T11:00:58.767Z,12.00
2018-11-07T11:03:28.076Z,10.63
2018-11-07T11:05:55.717Z,11.90
2018-11-07T11:08:24.416Z,11.00
2018-11-07T11:10:52.012Z,10.50
2018-11-07T11:13:19.653Z,11.53
2018-11-07T11:15:47.244Z,9.80
2018-11-07T11:18:14.884Z,11.10
2018-11-07T11:20:42.773Z,9.97
2018-11-07T11:23:10.446Z,10.03
2018-11-07T11:25:38.007Z,10.17
2018-11-07T11:28:05.655Z,9.93
2018-11-07T11:30:33.277Z,10.50
2018-11-07T11:33:01.048Z,10.67
2018-11-07T11:35:28.685Z,9.83
2018-11-07T11:37:56.472Z,10.17
2018-11-07T11:40:24.061Z,10.03
2018-11-07T11:42:51.629Z,8.83
2018-11-07T11:45:19.182Z,8.50
2018-11-07T11:47:46.980Z,8.80
2018-11-07T11:50:16.907Z,9.77
2018-11-07T11:52:45.238Z,8.10
2018-11-07T11:55:12.921Z,8.90
2018-11-07T11:57:41.197Z,7.43
2018-11-07T12:00:12.122Z,8.60
2018-11-07T12:02:39.760Z,7.97
2018-11-07T12:05:08.834Z,7.93
2018-11-07T12:07:36.424Z,7.57
2018-11-07T12:10:05.442Z,7.87
2018-11-07T12:12:32.995Z,7.70
2018-11-07T12:15:00.626Z,6.60
2018-11-07T12:17:28.232Z,6.50
2018-11-07T12:19:55.887Z,6.17
2018-11-07T12:22:23.447Z,6.63
2018-11-07T12:24:50.990Z,6.40
2018-11-07T12:27:18.547Z,6.17
2018-11-07T12:29:46.148Z,6.90
2018-11-07T12:32:13.692Z,6.17
2018-11-07T12:34:41.319Z,5.63
2018-11-07T12:37:08.881Z,5.67
2018-11-07T12:39:36.444Z,5.90
2018-11-07T12:42:05.120Z,6.27
2018-11-07T12:44:32.673Z,5.63
2018-11-07T12:47:00.196Z,6.23
2018-11-07T12:49:27.795Z,6.33
2018-11-07T12:51:55.321Z,6.10
2018-11-07T12:54:22.930Z,6.10
2018-11-07T12:56:50.501Z,6.70
2018-11-07T12:59:18.023Z,6.00
2018-11-07T13:01:45.639Z,5.77
2018-11-07T13:04:13.272Z,6.10
2018-11-07T13:06:40.867Z,6.30
2018-11-07T13:09:09.858Z,5.70
2018-11-07T13:11:37.798Z,6.43
2018-11-07T13:14:05.402Z,6.00
2018-11-07T13:16:33.142Z,5.10
2018-11-07T13:19:01.831Z,5.63
2018-11-07T13:21:29.357Z,5.50
2018-11-07T13:26:49.895Z,5.10
2018-11-07T13:29:18.670Z,5.40
2018-11-07T13:31:46.272Z,5.10
2018-11-07T13:34:13.928Z,5.07
2018-11-07T13:36:41.535Z,5.10
2018-11-07T13:39:11.185Z,5.57
2018-11-07T13:41:38.633Z,5.20
2018-11-07T13:44:06.286Z,5.50
2018-11-07T13:46:33.935Z,5.37
2018-11-07T13:49:01.629Z,4.93
2018-11-07T13:51:29.166Z,4.80
2018-11-07T13:53:56.889Z,5.07
2018-11-07T13:56:24.806Z,4.70
2018-11-07T13:58:52.344Z,4.70
2018-11-07T14:01:20.041Z,5.23
2018-11-07T14:03:47.717Z,4.80
2018-11-07T14:06:15.311Z,4.57
2018-11-07T14:08:42.902Z,5.20
2018-11-07T14:11:10.550Z,5.03
2018-11-07T14:13:38.183Z,5.33
2018-11-07T14:16:05.966Z,4.97
2018-11-07T14:18:33.537Z,5.00
2018-11-07T14:21:02.141Z,4.70
2018-11-07T14:23:29.874Z,4.20
2018-11-07T14:25:57.480Z,5.13
2018-11-07T14:28:25.253Z,4.97
2018-11-07T14:30:52.805Z,5.20
2018-11-07T14:33:20.924Z,5.67
2018-11-07T14:35:48.536Z,7.57
2018-11-07T14:38:16.070Z,7.40
2018-11-07T14:40:43.721Z,6.33
2018-11-07T14:43:11.379Z,4.83
2018-11-07T14:45:38.970Z,5.30
2018-11-07T14:48:06.558Z,4.70
2018-11-07T14:50:34.226Z,5.20
2018-11-07T14:53:01.778Z,5.57
2018-11-07T14:55:29.346Z,4.73
2018-11-07T14:57:56.841Z,5.50
2018-11-07T15:00:24.454Z,5.73
2018-11-07T15:02:51.985Z,5.37
2018-11-07T15:05:19.616Z,5.40
2018-11-07T15:07:47.250Z,5.53
2018-11-07T15:10:15.705Z,5.17
2018-11-07T15:12:43.309Z,5.90
2018-11-07T15:15:13.187Z,5.20
2018-11-07T15:17:40.743Z,6.37
2018-11-07T15:20:09.716Z,6.27
2018-11-07T15:22:37.332Z,4.93
2018-11-07T15:25:06.024Z,4.57
2018-11-07T15:27:33.568Z,5.50
2018-11-07T15:30:01.161Z,6.40
2018-11-07T15:32:28.839Z,7.10
2018-11-07T15:34:56.387Z,7.10
2018-11-07T15:37:24.039Z,6.73
2018-11-07T15:39:51.661Z,5.50
2018-11-07T15:42:19.199Z,5.97
2018-11-07T15:44:46.847Z,5.20
2018-11-07T15:47:14.536Z,5.97
2018-11-07T15:49:46.631Z,5.33
2018-11-07T15:52:14.085Z,5.07
2018-11-07T15:54:41.561Z,5.03
2018-11-07T15:57:09.285Z,5.00
2018-11-07T15:59:36.802Z,4.90
2018-11-07T16:02:04.473Z,6.20
2018-11-07T16:04:32.005Z,5.80
2018-11-07T16:06:59.659Z,5.63
2018-11-07T16:09:27.317Z,5.97
2018-11-07T16:11:54.912Z,9.37
2018-11-07T16:14:22.497Z,11.70
2018-11-07T16:16:50.158Z,8.50
2018-11-07T16:19:17.682Z,7.50
2018-11-07T16:21:45.259Z,5.77
2018-11-07T16:24:12.935Z,6.30
2018-11-07T16:26:40.507Z,8.10
2018-11-07T16:29:15.026Z,9.90
2018-11-07T16:31:46.943Z,9.80
2018-11-07T16:34:14.489Z,7.53
2018-11-07T16:36:42.093Z,7.23
2018-11-07T16:39:10.606Z,6.97
2018-11-07T16:41:38.289Z,5.80
2018-11-07T16:44:06.064Z,6.20
2018-11-07T16:46:33.919Z,5.33
2018-11-07T16:49:01.474Z,5.30
2018-11-07T16:51:28.954Z,5.37
2018-11-07T16:53:56.522Z,6.63
2018-11-07T16:56:24.151Z,6.13
2018-11-07T16:58:51.755Z,5.80
2018-11-07T17:01:19.385Z,6.23
2018-11-07T17:03:46.998Z,6.20
2018-11-07T17:06:14.529Z,6.37
2018-11-07T17:08:42.082Z,5.90
2018-11-07T17:11:09.696Z,6.10
2018-11-07T17:13:37.259Z,7.03
2018-11-07T17:16:05.238Z,5.93
2018-11-07T17:18:32.849Z,6.90
2018-11-07T17:21:00.453Z,5.73
2018-11-07T17:23:28.006Z,5.03
2018-11-07T17:26:58.985Z,5.47
2018-11-07T17:29:26.577Z,5.50
2018-11-07T17:31:54.216Z,6.47
2018-11-07T17:34:21.702Z,7.53
2018-11-07T17:36:50.317Z,10.53
2018-11-07T17:39:17.947Z,6.60
2018-11-07T17:41:45.504Z,6.73
2018-11-07T17:44:13.146Z,5.40
2018-11-07T17:46:40.883Z,5.60
2018-11-07T17:49:08.472Z,8.63
2018-11-07T17:51:36.085Z,9.47
2018-11-07T17:54:03.674Z,6.87
2018-11-07T17:56:31.272Z,5.87
2018-11-07T17:58:58.830Z,5.53
2018-11-07T18:01:26.382Z,5.30
2018-11-07T18:03:54.006Z,6.23
2018-11-07T18:06:21.590Z,4.37
2018-11-07T18:08:49.283Z,4.87
2018-11-07T18:11:17.028Z,5.50
2018-11-07T18:13:44.697Z,5.30
2018-11-07T18:16:12.196Z,5.03
2018-11-07T18:18:40.256Z,5.70
2018-11-07T18:21:07.801Z,7.10
2018-11-07T18:23:35.396Z,9.57
2018-11-07T18:26:02.925Z,6.73
2018-11-07T18:28:30.447Z,6.87
2018-11-07T18:30:58.076Z,7.63
2018-11-07T18:33:25.630Z,8.97
2018-11-07T18:35:54.578Z,9.30
2018-11-07T18:38:22.932Z,7.40
2018-11-07T18:40:50.712Z,6.60
2018-11-07T18:43:18.413Z,7.13
2018-11-07T18:45:46.829Z,6.57
2018-11-07T18:48:15.185Z,5.93
2018-11-07T18:50:43.516Z,6.50
2018-11-07T18:53:12.309Z,6.57
2018-11-07T18:55:39.979Z,5.90
2018-11-07T18:58:07.550Z,6.73
2018-11-07T19:00:35.934Z,6.60
2018-11-07T19:03:03.461Z,6.27
2018-11-07T19:05:31.188Z,7.37
2018-11-07T19:07:58.863Z,6.70
2018-11-07T19:10:26.551Z,7.23
2018-11-07T19:12:54.261Z,7.60
2018-11-07T19:15:21.873Z,7.50
2018-11-07T19:17:50.346Z,7.10
2018-11-07T19:20:18.466Z,7.03
2018-11-07T19:22:46.100Z,6.70
2018-11-07T19:25:14.986Z,6.50
2018-11-07T19:27:42.776Z,6.10
2018-11-07T19:30:15.397Z,6.73
2018-11-07T19:32:44.356Z,6.73
2018-11-07T19:35:13.208Z,7.47
2018-11-07T19:37:45.323Z,12.23
2018-11-07T19:40:14.146Z,9.17
2018-11-07T19:42:41.961Z,8.23
2018-11-07T19:45:12.002Z,7.63
2018-11-07T19:47:39.612Z,7.97
2018-11-07T19:50:08.513Z,8.20
2018-11-07T19:52:36.466Z,7.40
2018-11-07T19:55:05.711Z,8.23
2018-11-07T19:57:33.224Z,8.00
2018-11-07T20:00:00.718Z,8.77
2018-11-07T20:02:28.252Z,7.63
2018-11-07T20:04:55.692Z,8.60
2018-11-07T20:07:23.366Z,8.90
2018-11-07T20:09:51.880Z,8.03
2018-11-07T20:12:19.448Z,8.00
2018-11-07T20:14:47.046Z,9.00
2018-11-07T20:17:14.605Z,8.53
2018-11-07T20:19:42.245Z,9.00
2018-11-07T20:22:09.858Z,8.40
2018-11-07T20:24:37.372Z,9.33
2018-11-07T20:27:05.098Z,8.33
2018-11-07T20:29:32.561Z,8.27
2018-11-07T20:32:00.315Z,9.47
2018-11-07T20:34:27.885Z,10.20
2018-11-07T20:36:55.477Z,9.33
2018-11-07T20:39:23.009Z,8.50
2018-11-07T20:41:50.641Z,8.70
2018-11-07T20:44:18.252Z,9.07
2018-11-07T20:46:45.750Z,9.43
2018-11-07T20:49:13.313Z,9.20
2018-11-07T20:51:40.808Z,9.47
2018-11-07T20:54:08.316Z,9.37
2018-11-07T20:56:35.861Z,8.90
2018-11-07T20:59:03.398Z,8.97
2018-11-07T21:01:30.917Z,9.13
2018-11-07T21:03:58.394Z,8.67
2018-11-07T21:06:25.838Z,9.53
2018-11-07T21:08:53.375Z,9.63
2018-11-07T21:11:20.989Z,9.73
2018-11-07T21:13:48.473Z,9.70
2018-11-07T21:16:16.057Z,10.10
2018-11-07T21:18:43.579Z,9.33
2018-11-07T21:21:11.093Z,10.37
2018-11-07T21:23:38.592Z,10.20
2018-11-07T21:26:06.186Z,10.60
2018-11-07T21:28:34.832Z,10.10
2018-11-07T21:31:03.423Z,9.07
2018-11-07T21:33:30.867Z,10.50
2018-11-07T21:35:58.380Z,10.73
2018-11-07T21:38:25.887Z,9.70
2018-11-07T21:40:53.586Z,8.97
2018-11-07T21:43:21.156Z,9.10
2018-11-07T21:45:48.714Z,10.30
2018-11-07T21:48:16.204Z,9.63
2018-11-07T21:50:44.071Z,9.83
2018-11-07T21:53:11.606Z,9.00
2018-11-07T21:55:39.193Z,9.23
2018-11-07T21:58:06.664Z,8.60
2018-11-07T22:00:34.190Z,8.67
2018-11-07T22:03:01.640Z,9.00
2018-11-07T22:05:30.386Z,8.20
2018-11-07T22:07:57.850Z,9.87
2018-11-07T22:10:25.419Z,9.20
2018-11-07T22:12:52.953Z,10.60
2018-11-07T22:15:20.468Z,10.33
2018-11-07T22:17:47.983Z,10.17
2018-11-07T22:20:18.330Z,16.10
2018-11-07T22:22:45.886Z,14.73
2018-11-07T22:25:13.668Z,9.97
2018-11-07T22:27:41.181Z,11.27
2018-11-07T22:30:10.721Z,10.47
2018-11-07T22:32:38.620Z,8.70
2018-11-07T22:35:07.757Z,8.10
2018-11-07T22:37:35.305Z,8.50
2018-11-07T22:40:02.951Z,10.27
2018-11-07T22:42:30.422Z,9.53
2018-11-07T22:44:58.000Z,9.43
2018-11-07T22:47:25.579Z,9.40
2018-11-07T22:49:54.131Z,9.37
2018-11-07T22:52:21.639Z,9.47
2018-11-07T22:54:49.216Z,9.13
2018-11-07T22:57:16.714Z,9.00
2018-11-07T22:59:44.220Z,8.87
2018-11-07T23:02:11.753Z,9.67
2018-11-07T23:04:39.307Z,9.30
2018-11-07T23:07:06.802Z,9.40
2018-11-07T23:09:34.334Z,9.87
2018-11-07T23:12:01.845Z,8.73
2018-11-07T23:14:29.449Z,8.17
2018-11-07T23:16:56.933Z,9.20
2018-11-07T23:19:24.507Z,9.10
2018-11-07T23:21:51.994Z,8.97
2018-11-07T23:24:19.638Z,8.50
2018-11-07T23:26:47.111Z,9.20
2018-11-07T23:29:14.697Z,8.33
2018-11-07T23:31:46.035Z,9.57
2018-11-07T23:34:13.585Z,8.80
2018-11-07T23:36:41.138Z,8.47
2018-11-07T23:39:09.239Z,8.73
2018-11-07T23:41:36.791Z,9.20
2018-11-07T23:44:04.570Z,8.53
2018-11-07T23:46:32.119Z,9.43
2018-11-07T23:48:59.571Z,9.80
2018-11-07T23:51:27.117Z,9.20
2018-11-07T23:53:54.619Z,8.90
2018-11-07T23:56:22.124Z,8.80
2018-11-07T23:58:49.710Z,8.53
